Terminal Aerodrome Forecast
Issued by NWS

Home | Current Version | Previous Version | Text Only | Print | Product List | Glossary On
Versions: 1 2 3 4 5 6 7 8 9 10 11 12 13 14
000
FTPA31 PHFO 291137
TAFHJR
TAF
PHJR 291137Z 2912/3012 VRB03KT P6SM SCT025
     FM291900 20008KT P6SM SCT025 SCT060
      TEMPO 2923/3002 BKN025
     FM300500 VRB03KT P6SM SCT025 SCT060=

USA.gov is the U.S. government's official web portal to all federal, state and local government web resources and services.